createdAt,value
2022-10-25T00:02:30.808Z,14.50
2022-10-25T00:05:00.473Z,14.50
2022-10-25T00:07:27.757Z,14.50
2022-10-25T00:09:55.210Z,14.50
2022-10-25T00:12:29.561Z,14.50
2022-10-25T00:15:03.512Z,14.40
2022-10-25T00:17:33.605Z,14.50
2022-10-25T00:20:05.927Z,14.40
2022-10-25T00:22:35.456Z,14.40
2022-10-25T00:25:06.481Z,14.40
2022-10-25T00:27:33.886Z,14.40
2022-10-25T00:30:01.521Z,14.40
2022-10-25T00:32:35.595Z,14.40
2022-10-25T00:35:06.193Z,14.50
2022-10-25T00:37:33.344Z,14.40
2022-10-25T00:40:00.667Z,14.50
2022-10-25T00:42:27.730Z,14.50
2022-10-25T00:45:12.704Z,14.40
2022-10-25T00:47:45.966Z,14.40
2022-10-25T00:50:22.709Z,14.50
2022-10-25T00:52:56.105Z,14.50
2022-10-25T00:55:28.644Z,14.40
2022-10-25T00:58:08.042Z,14.50
2022-10-25T01:00:41.233Z,14.50
2022-10-25T01:03:13.730Z,14.50
2022-10-25T01:05:45.505Z,14.50
2022-10-25T01:08:13.019Z,14.50
2022-10-25T01:10:42.796Z,14.50
2022-10-25T01:13:10.045Z,14.40
2022-10-25T01:16:10.733Z,14.40
2022-10-25T01:18:48.371Z,14.40
2022-10-25T01:21:44.392Z,14.40
2022-10-25T01:24:29.573Z,14.40
2022-10-25T01:27:24.844Z,14.40
2022-10-25T01:30:12.752Z,14.40
2022-10-25T01:33:00.695Z,14.40
2022-10-25T01:35:50.087Z,14.40
2022-10-25T01:38:44.162Z,14.40
2022-10-25T01:41:50.158Z,14.40
2022-10-25T01:44:32.269Z,14.40
2022-10-25T01:47:03.321Z,14.30
2022-10-25T01:49:39.709Z,14.30
2022-10-25T01:52:08.996Z,14.30
2022-10-25T01:54:38.782Z,14.30
2022-10-25T01:57:33.081Z,14.30
2022-10-25T02:00:09.498Z,14.30
2022-10-25T02:02:50.450Z,14.20
2022-10-25T02:05:23.743Z,14.20
2022-10-25T02:07:55.854Z,14.20
2022-10-25T02:10:41.136Z,14.20
2022-10-25T02:13:27.036Z,14.20
2022-10-25T02:16:07.218Z,14.20
2022-10-25T02:18:44.336Z,14.20
2022-10-25T02:21:13.764Z,14.20
2022-10-25T02:23:41.995Z,14.10
2022-10-25T02:26:15.325Z,14.10
2022-10-25T02:28:42.749Z,14.10
2022-10-25T02:31:17.509Z,14.10
2022-10-25T02:33:52.529Z,14.00
2022-10-25T02:36:28.534Z,14.00
2022-10-25T02:38:57.435Z,13.90
2022-10-25T02:41:24.857Z,13.80
2022-10-25T02:43:52.015Z,13.80
2022-10-25T02:46:21.716Z,13.70
2022-10-25T02:48:52.169Z,13.70
2022-10-25T02:51:23.004Z,13.70
2022-10-25T02:53:50.059Z,13.60
2022-10-25T02:56:23.253Z,13.60
2022-10-25T02:58:58.634Z,13.60
2022-10-25T03:01:32.651Z,13.60
2022-10-25T03:04:02.056Z,13.70
2022-10-25T03:06:31.800Z,13.70
2022-10-25T03:08:58.843Z,13.70
2022-10-25T03:11:31.046Z,13.70
2022-10-25T03:13:58.061Z,13.70
2022-10-25T03:16:32.473Z,13.80
2022-10-25T03:19:00.107Z,13.80
2022-10-25T03:21:27.478Z,13.80
2022-10-25T03:23:59.445Z,13.70
2022-10-25T03:26:31.642Z,13.70
2022-10-25T03:29:03.626Z,13.70
2022-10-25T03:31:31.031Z,13.70
2022-10-25T03:34:00.414Z,13.70
2022-10-25T03:36:29.998Z,13.60
2022-10-25T03:38:59.430Z,13.60
2022-10-25T03:41:28.941Z,13.60
2022-10-25T03:43:58.315Z,13.60
2022-10-25T03:46:25.766Z,13.50
2022-10-25T03:48:55.381Z,13.50
2022-10-25T03:51:25.242Z,13.40
2022-10-25T03:53:57.127Z,13.40
2022-10-25T03:56:26.739Z,13.30
2022-10-25T03:58:55.938Z,13.30
2022-10-25T04:01:23.291Z,13.30
2022-10-25T04:03:52.660Z,13.20
2022-10-25T04:06:19.994Z,13.20
2022-10-25T04:08:47.037Z,13.20
2022-10-25T04:11:21.337Z,13.20
2022-10-25T04:13:50.806Z,13.20
2022-10-25T04:16:23.386Z,13.30
2022-10-25T04:18:53.323Z,13.30
2022-10-25T04:21:21.373Z,13.40
2022-10-25T04:23:52.289Z,13.40
2022-10-25T04:26:22.113Z,13.50
2022-10-25T04:28:56.575Z,13.40
2022-10-25T04:31:24.529Z,13.50
2022-10-25T04:33:52.892Z,13.50
2022-10-25T04:36:20.966Z,13.50
2022-10-25T04:38:56.068Z,13.50
2022-10-25T04:41:23.445Z,13.40
2022-10-25T04:43:58.086Z,13.40
2022-10-25T04:46:28.346Z,13.40
2022-10-25T04:48:58.094Z,13.40
2022-10-25T04:51:27.809Z,13.30
2022-10-25T04:53:59.337Z,13.40
2022-10-25T04:56:32.011Z,13.30
2022-10-25T04:59:01.147Z,13.30
2022-10-25T05:01:30.902Z,13.20
2022-10-25T05:04:00.637Z,13.30
2022-10-25T05:06:27.982Z,13.30
2022-10-25T05:08:55.762Z,13.20
2022-10-25T05:11:28.396Z,13.30
2022-10-25T05:13:55.430Z,13.20
2022-10-25T05:16:25.881Z,13.30
2022-10-25T05:18:56.289Z,13.20
2022-10-25T05:21:31.585Z,13.20
2022-10-25T05:24:02.524Z,13.20
2022-10-25T05:26:30.893Z,13.20
2022-10-25T05:29:00.282Z,13.20
2022-10-25T05:31:32.189Z,13.20
2022-10-25T05:34:01.742Z,13.20
2022-10-25T05:36:33.313Z,13.20
2022-10-25T05:39:01.207Z,13.20
2022-10-25T05:41:33.402Z,13.20
2022-10-25T05:44:08.813Z,13.20
2022-10-25T05:46:38.281Z,13.20
2022-10-25T05:49:11.417Z,13.20
2022-10-25T05:51:39.098Z,13.20
2022-10-25T05:54:16.081Z,13.20
2022-10-25T05:56:46.033Z,13.20
2022-10-25T05:59:14.826Z,13.20
2022-10-25T06:01:44.877Z,13.30
2022-10-25T06:04:15.680Z,13.20
2022-10-25T06:06:45.623Z,13.30
2022-10-25T06:09:13.562Z,13.30
2022-10-25T06:11:45.907Z,13.30
2022-10-25T06:14:17.976Z,13.30
2022-10-25T06:16:47.599Z,13.30
2022-10-25T06:19:20.163Z,13.40
2022-10-25T06:21:49.927Z,13.40
2022-10-25T06:24:17.617Z,13.40
2022-10-25T06:26:44.814Z,13.40
2022-10-25T06:29:11.848Z,13.50
2022-10-25T06:31:39.167Z,13.50
2022-10-25T06:34:06.191Z,13.50
2022-10-25T06:36:35.748Z,13.60
2022-10-25T06:39:10.042Z,13.60
2022-10-25T06:41:37.879Z,13.60
2022-10-25T06:44:10.769Z,13.50
2022-10-25T06:49:31.945Z,13.50
2022-10-25T06:52:06.478Z,13.50
2022-10-25T06:54:33.831Z,13.60
2022-10-25T06:57:05.387Z,13.50
2022-10-25T06:59:37.133Z,13.50
2022-10-25T07:02:07.105Z,13.60
2022-10-25T07:04:36.358Z,13.60
2022-10-25T07:07:03.658Z,13.50
2022-10-25T07:09:30.728Z,13.60
2022-10-25T07:12:02.307Z,13.70
2022-10-25T07:14:31.418Z,13.70
2022-10-25T07:17:00.918Z,13.80
2022-10-25T07:19:30.184Z,13.80
2022-10-25T07:21:59.557Z,13.90
2022-10-25T07:24:29.132Z,14.00
2022-10-25T07:26:56.519Z,14.10
2022-10-25T07:29:26.094Z,14.10
2022-10-25T07:31:58.434Z,14.10
2022-10-25T07:34:30.141Z,14.20
2022-10-25T07:36:57.481Z,14.30
2022-10-25T07:39:24.620Z,14.30
2022-10-25T07:41:54.362Z,14.30
2022-10-25T07:44:25.072Z,14.30
2022-10-25T07:46:57.175Z,14.40
2022-10-25T07:49:24.669Z,14.40
2022-10-25T07:51:54.020Z,14.40
2022-10-25T07:54:23.427Z,14.30
2022-10-25T07:56:55.673Z,14.40
2022-10-25T07:59:25.079Z,14.40
2022-10-25T08:01:52.698Z,14.50
2022-10-25T08:04:22.026Z,14.50
2022-10-25T08:06:54.264Z,14.60
2022-10-25T08:09:37.278Z,14.60
2022-10-25T08:12:05.573Z,14.60
2022-10-25T08:14:38.144Z,14.60
2022-10-25T08:17:08.747Z,14.60
2022-10-25T08:19:40.614Z,14.60
2022-10-25T08:22:10.965Z,14.70
2022-10-25T08:24:42.977Z,14.70
2022-10-25T08:27:12.279Z,14.70
2022-10-25T08:29:44.573Z,14.80
2022-10-25T08:32:14.714Z,14.80
2022-10-25T08:34:41.896Z,14.80
2022-10-25T08:37:12.650Z,14.80
2022-10-25T08:39:42.009Z,14.90
2022-10-25T08:42:21.035Z,14.90
2022-10-25T08:45:08.584Z,15.00
2022-10-25T08:47:42.641Z,15.00
2022-10-25T08:50:16.565Z,15.20
2022-10-25T08:52:53.690Z,15.20
2022-10-25T08:55:31.945Z,15.30
2022-10-25T08:58:03.973Z,15.40
2022-10-25T09:00:39.399Z,15.50
2022-10-25T09:03:24.753Z,15.60
2022-10-25T09:06:02.787Z,15.70
2022-10-25T09:08:52.410Z,15.80
2022-10-25T09:11:23.926Z,15.80
2022-10-25T09:14:14.625Z,15.80
2022-10-25T09:16:57.198Z,15.90
2022-10-25T09:20:16.246Z,15.90
2022-10-25T09:22:48.386Z,16.10
2022-10-25T09:25:33.515Z,16.20
2022-10-25T09:28:03.715Z,16.20
2022-10-25T09:30:37.724Z,16.30
2022-10-25T09:33:11.750Z,16.30
2022-10-25T09:35:49.466Z,16.30
2022-10-25T09:38:28.766Z,16.40
2022-10-25T09:41:11.802Z,16.40
2022-10-25T09:43:48.456Z,16.50
2022-10-25T09:46:25.369Z,16.40
2022-10-25T09:49:04.842Z,16.30
2022-10-25T09:51:35.991Z,16.30
2022-10-25T09:54:19.030Z,16.20
2022-10-25T09:56:48.979Z,16.20
2022-10-25T09:59:27.765Z,16.20
2022-10-25T10:02:00.107Z,16.20
2022-10-25T10:04:41.639Z,16.20
2022-10-25T10:07:18.112Z,16.20
2022-10-25T10:09:48.642Z,16.20
2022-10-25T10:12:25.702Z,16.20
2022-10-25T10:14:58.958Z,16.20
2022-10-25T10:17:30.666Z,16.20
2022-10-25T10:20:15.592Z,16.20
2022-10-25T10:23:00.003Z,16.20
2022-10-25T10:25:32.546Z,16.20
2022-10-25T10:28:02.114Z,16.20
2022-10-25T10:30:31.865Z,16.20
2022-10-25T10:33:03.122Z,16.20
2022-10-25T10:35:37.036Z,16.10
2022-10-25T10:38:14.961Z,16.10
2022-10-25T10:40:47.887Z,16.00
2022-10-25T10:43:34.243Z,16.00
2022-10-25T10:46:08.243Z,16.00
2022-10-25T10:48:45.851Z,16.00
2022-10-25T10:54:31.970Z,16.00
2022-10-25T10:57:06.514Z,16.10
2022-10-25T11:00:04.013Z,16.10
2022-10-25T11:02:41.485Z,16.30
2022-10-25T11:05:32.523Z,16.30
2022-10-25T11:08:06.927Z,16.40
2022-10-25T11:10:38.763Z,16.40
2022-10-25T11:13:18.690Z,16.50
2022-10-25T11:15:56.522Z,16.60
2022-10-25T11:18:45.822Z,16.70
2022-10-25T11:21:27.526Z,16.60
2022-10-25T11:24:12.254Z,16.70
2022-10-25T11:27:07.503Z,16.60
2022-10-25T11:29:49.306Z,16.50
2022-10-25T11:32:17.201Z,16.50
2022-10-25T11:35:09.950Z,16.40
2022-10-25T11:37:48.040Z,16.40
2022-10-25T11:40:21.790Z,16.30
2022-10-25T11:43:01.614Z,16.30
2022-10-25T11:45:48.465Z,16.40
2022-10-25T11:48:47.830Z,16.40
2022-10-25T11:51:42.154Z,16.40
2022-10-25T11:54:25.758Z,16.40
2022-10-25T11:57:04.350Z,16.40
2022-10-25T12:00:19.634Z,16.40
2022-10-25T12:03:14.350Z,16.40
2022-10-25T12:05:51.450Z,16.50
2022-10-25T12:08:55.990Z,16.50
2022-10-25T12:11:31.170Z,16.50
2022-10-25T12:14:06.782Z,16.60
2022-10-25T12:16:36.370Z,16.60
2022-10-25T12:19:19.537Z,16.60
2022-10-25T12:22:01.689Z,16.60
2022-10-25T12:24:37.795Z,16.50
2022-10-25T12:27:13.264Z,16.40
2022-10-25T12:29:46.657Z,16.30
2022-10-25T12:32:32.251Z,16.40
2022-10-25T12:35:01.546Z,16.30
2022-10-25T12:37:39.641Z,16.40
2022-10-25T12:40:15.791Z,16.30
2022-10-25T12:42:51.239Z,16.30
2022-10-25T12:45:45.837Z,16.30
2022-10-25T12:48:48.027Z,16.20
2022-10-25T12:51:48.803Z,16.20
2022-10-25T12:54:40.409Z,16.20
2022-10-25T12:57:30.906Z,16.30
2022-10-25T13:03:10.237Z,16.30
2022-10-25T13:05:56.829Z,16.30
2022-10-25T13:08:26.996Z,16.30
2022-10-25T13:11:03.845Z,16.30
2022-10-25T13:13:53.889Z,16.30
2022-10-25T13:16:33.917Z,16.30
2022-10-25T13:19:25.951Z,16.40
2022-10-25T13:22:12.237Z,16.50
2022-10-25T13:24:48.232Z,16.50
2022-10-25T13:27:19.760Z,16.50
2022-10-25T13:30:07.326Z,16.50
2022-10-25T13:32:42.287Z,16.50
2022-10-25T13:35:22.058Z,16.50
2022-10-25T13:38:06.110Z,16.50
2022-10-25T13:40:38.230Z,16.50
2022-10-25T13:43:22.430Z,16.50
2022-10-25T13:45:58.093Z,16.50
2022-10-25T13:48:32.698Z,16.50
2022-10-25T13:51:10.779Z,16.50
2022-10-25T13:53:50.653Z,16.50
2022-10-25T13:56:34.079Z,16.50
2022-10-25T13:59:04.871Z,16.40
2022-10-25T14:01:54.471Z,16.30
2022-10-25T14:04:35.223Z,16.20
2022-10-25T14:07:44.817Z,16.20
2022-10-25T14:10:26.523Z,16.20
2022-10-25T14:12:58.712Z,16.20
2022-10-25T14:15:45.570Z,16.30
2022-10-25T14:18:24.758Z,16.20
2022-10-25T14:21:01.933Z,16.20
2022-10-25T14:23:36.593Z,16.20
2022-10-25T14:26:14.234Z,16.20
2022-10-25T14:28:43.786Z,16.30
2022-10-25T14:31:21.181Z,16.20
2022-10-25T14:33:52.167Z,16.20
2022-10-25T14:36:32.739Z,16.20
2022-10-25T14:39:02.058Z,16.20
2022-10-25T14:41:32.293Z,16.10
2022-10-25T14:44:30.230Z,16.10
2022-10-25T14:47:04.742Z,15.90
2022-10-25T14:49:33.866Z,16.00
2022-10-25T14:52:06.503Z,15.90
2022-10-25T14:54:37.159Z,15.90
2022-10-25T14:57:13.908Z,15.80
2022-10-25T14:59:49.241Z,15.80
2022-10-25T15:02:30.220Z,15.80
2022-10-25T15:05:00.117Z,15.70
2022-10-25T15:07:31.903Z,15.60
2022-10-25T15:12:32.869Z,15.60
2022-10-25T15:15:33.575Z,15.50
2022-10-25T15:18:00.901Z,15.40
2022-10-25T15:20:38.698Z,15.40
2022-10-25T15:23:18.979Z,15.30
2022-10-25T15:25:48.541Z,15.30
2022-10-25T15:28:20.073Z,15.20
2022-10-25T15:30:49.635Z,15.10
2022-10-25T15:33:30.829Z,15.10
2022-10-25T15:36:01.218Z,15.10
2022-10-25T15:39:06.805Z,15.00
2022-10-25T15:41:23.082Z,15.00
2022-10-25T15:43:56.496Z,15.00
2022-10-25T15:46:38.271Z,14.90
2022-10-25T15:49:08.259Z,14.80
2022-10-25T15:51:39.293Z,14.80
2022-10-25T15:54:20.133Z,14.80
2022-10-25T15:56:47.997Z,14.80
2022-10-25T16:01:49.581Z,14.70
2022-10-25T16:04:22.238Z,14.70
2022-10-25T16:06:51.912Z,14.70
2022-10-25T16:09:19.231Z,14.70
2022-10-25T16:11:54.167Z,14.60
2022-10-25T16:14:26.137Z,14.60
2022-10-25T16:16:58.149Z,14.60
2022-10-25T16:19:31.670Z,14.50
2022-10-25T16:21:59.854Z,14.50
2022-10-25T16:24:27.259Z,14.40
2022-10-25T16:26:54.418Z,14.40
2022-10-25T16:29:26.223Z,14.40
2022-10-25T16:31:56.112Z,14.30
2022-10-25T16:34:23.325Z,14.30
2022-10-25T16:36:52.500Z,14.30
2022-10-25T16:39:22.289Z,14.30
2022-10-25T16:41:54.899Z,14.30
2022-10-25T16:44:24.744Z,14.30
2022-10-25T16:46:53.995Z,14.30
2022-10-25T16:49:25.988Z,14.30
2022-10-25T16:51:55.904Z,14.30
2022-10-25T16:54:24.292Z,14.30
2022-10-25T16:56:53.771Z,14.30
2022-10-25T16:59:21.107Z,14.30
2022-10-25T17:01:54.265Z,14.30
2022-10-25T17:04:24.792Z,14.30
2022-10-25T17:06:54.058Z,14.30
2022-10-25T17:09:28.965Z,14.20
2022-10-25T17:11:56.110Z,14.20
2022-10-25T17:14:25.789Z,14.20
2022-10-25T17:17:02.301Z,14.20
2022-10-25T17:19:30.836Z,14.20
2022-10-25T17:22:00.027Z,14.10
2022-10-25T17:24:33.018Z,14.10
2022-10-25T17:27:00.114Z,14.10
2022-10-25T17:29:29.904Z,14.10
2022-10-25T17:31:57.069Z,14.10
2022-10-25T17:34:24.514Z,14.10
2022-10-25T17:36:56.158Z,14.20
2022-10-25T17:39:25.798Z,14.20
2022-10-25T17:41:59.863Z,14.20
2022-10-25T17:44:29.225Z,14.20
2022-10-25T17:47:03.065Z,14.20
2022-10-25T17:49:34.222Z,14.20
2022-10-25T17:52:01.361Z,14.20
2022-10-25T17:54:37.210Z,14.20
2022-10-25T17:57:05.851Z,14.20
2022-10-25T17:59:33.616Z,14.20
2022-10-25T18:02:00.824Z,14.10
2022-10-25T18:04:40.793Z,14.10
2022-10-25T18:07:15.213Z,14.00
2022-10-25T18:09:47.225Z,13.90
2022-10-25T18:12:14.234Z,13.90
2022-10-25T18:14:43.749Z,13.90
2022-10-25T18:17:13.023Z,13.90
2022-10-25T18:19:42.340Z,13.90
2022-10-25T18:22:14.202Z,13.90
2022-10-25T18:24:46.347Z,13.90
2022-10-25T18:27:18.234Z,13.80
2022-10-25T18:29:50.719Z,13.80
2022-10-25T18:32:17.813Z,13.80
2022-10-25T18:34:47.683Z,13.80
2022-10-25T18:37:16.982Z,13.80
2022-10-25T18:39:47.026Z,13.70
2022-10-25T18:42:16.402Z,13.70
2022-10-25T18:44:43.985Z,13.70
2022-10-25T18:47:11.059Z,13.70
2022-10-25T18:49:40.767Z,13.60
2022-10-25T18:52:12.748Z,13.70
2022-10-25T18:54:40.415Z,13.70
2022-10-25T18:57:07.718Z,13.70
2022-10-25T18:59:39.767Z,13.70
2022-10-25T19:02:11.887Z,13.70
2022-10-25T19:04:39.179Z,13.70
2022-10-25T19:07:06.240Z,13.70
2022-10-25T19:09:38.262Z,13.70
2022-10-25T19:12:10.075Z,13.70
2022-10-25T19:14:41.996Z,13.80
2022-10-25T19:17:11.546Z,13.70
2022-10-25T19:19:44.381Z,13.70
2022-10-25T19:22:16.328Z,13.70
2022-10-25T19:24:44.129Z,13.70
2022-10-25T19:27:15.035Z,13.70
2022-10-25T19:29:42.345Z,13.60
2022-10-25T19:32:11.840Z,13.60
2022-10-25T19:34:44.007Z,13.60
2022-10-25T19:37:13.303Z,13.60
2022-10-25T19:39:44.747Z,13.60
2022-10-25T19:42:18.920Z,13.70
2022-10-25T19:44:49.470Z,13.60
2022-10-25T19:47:19.266Z,13.60
2022-10-25T19:49:53.858Z,13.60
2022-10-25T19:52:21.042Z,13.60
2022-10-25T19:54:48.572Z,13.50
2022-10-25T19:57:20.344Z,13.50
2022-10-25T19:59:47.702Z,13.50
2022-10-25T20:02:17.235Z,13.40
2022-10-25T20:04:44.611Z,13.40
2022-10-25T20:07:14.017Z,13.40
2022-10-25T20:09:41.695Z,13.30
2022-10-25T20:12:08.822Z,13.30
2022-10-25T20:14:40.867Z,13.30
2022-10-25T20:17:12.518Z,13.20
2022-10-25T20:19:46.663Z,13.20
2022-10-25T20:22:16.804Z,13.20
2022-10-25T20:24:48.907Z,13.20
2022-10-25T20:27:18.621Z,13.20
2022-10-25T20:29:46.062Z,13.20
2022-10-25T20:32:17.639Z,13.10
2022-10-25T20:34:51.630Z,13.20
2022-10-25T20:37:19.198Z,13.20
2022-10-25T20:39:46.576Z,13.20
2022-10-25T20:42:13.667Z,13.20
2022-10-25T20:44:48.068Z,13.20
2022-10-25T20:47:18.185Z,13.20
2022-10-25T20:49:52.426Z,13.20
2022-10-25T20:52:22.065Z,13.20
2022-10-25T20:54:51.610Z,13.10
2022-10-25T20:57:21.171Z,13.10
2022-10-25T20:59:49.352Z,13.00
2022-10-25T21:02:18.595Z,13.00
2022-10-25T21:04:53.981Z,12.10
2022-10-25T21:07:26.653Z,12.90
2022-10-25T21:09:56.003Z,12.80
2022-10-25T21:12:23.162Z,12.80
2022-10-25T21:14:59.875Z,12.80
2022-10-25T21:17:29.113Z,12.70
2022-10-25T21:19:56.357Z,12.70
2022-10-25T21:22:28.506Z,12.70
2022-10-25T21:25:01.270Z,12.60
2022-10-25T21:27:35.170Z,12.60
2022-10-25T21:30:02.726Z,12.50
2022-10-25T21:32:33.906Z,12.50
2022-10-25T21:35:03.810Z,12.50
2022-10-25T21:37:30.937Z,12.50
2022-10-25T21:40:02.527Z,12.40
2022-10-25T21:42:35.373Z,12.40
2022-10-25T21:45:05.046Z,12.40
2022-10-25T21:47:37.613Z,12.40
2022-10-25T21:50:10.091Z,12.30
2022-10-25T21:52:39.433Z,12.40
2022-10-25T21:55:07.221Z,12.40
2022-10-25T21:57:34.319Z,12.40
2022-10-25T22:00:01.889Z,12.40
2022-10-25T22:02:40.034Z,12.40
2022-10-25T22:05:07.815Z,12.40
2022-10-25T22:07:35.006Z,12.40
2022-10-25T22:10:07.143Z,12.40
2022-10-25T22:12:36.621Z,12.40
2022-10-25T22:15:06.820Z,12.40
2022-10-25T22:17:36.863Z,12.40
2022-10-25T22:20:07.353Z,12.40
2022-10-25T22:22:34.565Z,12.40
2022-10-25T22:25:04.480Z,12.40
2022-10-25T22:27:31.774Z,12.50
2022-10-25T22:30:03.566Z,12.50
2022-10-25T22:32:33.068Z,12.50
2022-10-25T22:35:03.702Z,12.40
2022-10-25T22:37:35.110Z,12.40
2022-10-25T22:40:08.403Z,12.40
2022-10-25T22:42:37.709Z,12.30
2022-10-25T22:45:09.945Z,12.30
2022-10-25T22:47:36.964Z,12.20
2022-10-25T22:50:06.893Z,12.20
2022-10-25T22:52:39.331Z,12.10
2022-10-25T22:55:10.384Z,12.20
2022-10-25T22:57:39.767Z,12.10
2022-10-25T23:00:09.969Z,12.10
2022-10-25T23:02:39.485Z,12.00
2022-10-25T23:05:09.333Z,12.00
2022-10-25T23:07:38.637Z,12.00
2022-10-25T23:10:06.210Z,12.00
2022-10-25T23:12:38.114Z,12.00
2022-10-25T23:15:08.127Z,12.00
2022-10-25T23:17:37.801Z,12.10
2022-10-25T23:20:05.593Z,12.00
2022-10-25T23:22:32.590Z,11.90
2022-10-25T23:25:02.121Z,11.90
2022-10-25T23:27:31.393Z,12.00
2022-10-25T23:29:58.653Z,12.00
2022-10-25T23:32:28.047Z,11.90
2022-10-25T23:34:57.587Z,11.90
2022-10-25T23:37:29.273Z,12.00
2022-10-25T23:39:56.611Z,12.00
2022-10-25T23:42:28.015Z,12.00
2022-10-25T23:44:55.233Z,12.00
2022-10-25T23:47:26.733Z,12.00
2022-10-25T23:49:56.254Z,12.00
2022-10-25T23:52:24.013Z,12.00
2022-10-25T23:54:55.830Z,12.00
2022-10-25T23:57:25.593Z,12.00
2022-10-25T23:59:55.349Z,12.00
